Time;durP1;ratioP1;P1;durP2;ratioP2;P2;SDS_P1;SDS_P2;PMS_P1;PMS_P2;Temp;Humidity;BMP_temperature;BMP_pressure;BME280_temperature;BME280_humidity;BME280_pressure;Samples;Min_cycle;Max_cycle;Signal;HPM_P1;HPM_P2
2021/08/12 00:01:32;;;;;;;0.50;0.50;;;24.30;50.30;;;;;;5136194;28;20043;-34
2021/08/12 00:03:58;;;;;;;0.80;0.80;;;24.30;50.30;;;;;;5135773;28;20115;-34
2021/08/12 00:06:23;;;;;;;0.63;0.63;;;24.30;50.30;;;;;;5136065;28;20127;-34
2021/08/12 00:08:49;;;;;;;0.52;0.52;;;24.30;50.40;;;;;;5117371;28;20051;-34
2021/08/12 00:11:14;;;;;;;0.70;0.70;;;24.20;50.30;;;;;;5136190;28;20078;-34
2021/08/12 00:13:40;;;;;;;0.63;0.63;;;24.30;50.40;;;;;;5135756;28;20054;-34
2021/08/12 00:16:06;;;;;;;0.60;0.60;;;24.20;50.30;;;;;;5134977;27;20108;-33
2021/08/12 00:18:32;;;;;;;0.60;0.60;;;24.20;50.30;;;;;;5135660;28;20095;-34
2021/08/12 00:20:58;;;;;;;0.50;0.50;;;24.30;50.40;;;;;;5117178;28;20399;-34
2021/08/12 00:23:25;;;;;;;0.70;0.45;;;24.20;50.40;;;;;;5135586;28;20099;-34
2021/08/12 00:25:53;;;;;;;0.80;0.55;;;24.20;50.40;;;;;;5135644;28;20047;-34
2021/08/12 00:28:19;;;;;;;0.50;0.50;;;24.20;50.40;;;;;;5135614;28;20050;-34
2021/08/12 00:30:44;;;;;;;0.82;0.60;;;24.20;50.40;;;;;;5117241;28;20478;-34
2021/08/12 00:33:10;;;;;;;0.70;0.70;;;24.20;50.50;;;;;;5135503;28;20043;-34
2021/08/12 00:35:36;;;;;;;0.70;0.60;;;24.20;50.50;;;;;;5117332;28;20055;-34
2021/08/12 00:38:03;;;;;;;0.60;0.60;;;24.20;50.50;;;;;;5116931;28;20092;-34
2021/08/12 00:40:30;;;;;;;0.85;0.85;;;24.20;50.50;;;;;;5116577;28;20043;-34
2021/08/12 00:42:55;;;;;;;0.60;0.60;;;24.20;50.50;;;;;;5135538;28;20045;-34
2021/08/12 00:45:22;;;;;;;0.73;0.60;;;24.20;50.50;;;;;;5116858;28;20058;-34
2021/08/12 00:47:48;;;;;;;0.65;0.60;;;24.20;50.50;;;;;;5135524;28;20051;-34
2021/08/12 00:50:15;;;;;;;0.55;0.55;;;24.20;50.50;;;;;;5116359;28;20057;-34
2021/08/12 00:52:43;;;;;;;0.50;0.50;;;24.20;50.50;;;;;;5116960;28;20403;-33
2021/08/12 00:55:09;;;;;;;0.50;0.50;;;24.20;50.50;;;;;;5116920;28;20039;-33
2021/08/12 00:57:36;;;;;;;0.70;0.70;;;24.20;50.60;;;;;;5116994;28;20047;-34
2021/08/12 01:00:06;;;;;;;0.60;0.50;;;24.20;50.60;;;;;;5135019;28;20043;-34
2021/08/12 01:02:34;;;;;;;0.70;0.70;;;24.10;50.50;;;;;;5114676;28;20146;-34
2021/08/12 01:05:01;;;;;;;0.60;0.60;;;24.10;50.60;;;;;;5116656;28;20478;-34
2021/08/12 01:07:27;;;;;;;0.75;0.63;;;24.10;50.60;;;;;;5116203;28;20062;-33
2021/08/12 01:10:04;;;;;;;0.60;0.60;;;24.10;50.60;;;;;;5116327;28;20494;-34
2021/08/12 01:12:37;;;;;;;0.70;0.70;;;24.10;50.60;;;;;;5116363;28;20062;-34
2021/08/12 01:15:07;;;;;;;0.60;0.60;;;24.10;50.60;;;;;;5114296;28;20063;-34
2021/08/12 01:17:43;;;;;;;0.70;0.70;;;24.10;50.60;;;;;;5116392;28;20493;-34
2021/08/12 01:20:47;;;;;;;0.70;0.70;;;24.10;50.60;;;;;;5134669;28;20054;-34
2021/08/12 01:23:15;;;;;;;0.70;0.70;;;24.10;50.60;;;;;;5116469;28;20096;-34
2021/08/12 01:25:43;;;;;;;0.52;0.50;;;24.10;51.20;;;;;;5116455;28;20078;-34
2021/08/12 01:28:18;;;;;;;0.68;0.68;;;24.10;50.70;;;;;;5114302;28;20075;-34
2021/08/12 01:31:06;;;;;;;0.70;0.70;;;24.10;50.70;;;;;;5115283;28;20055;-33
2021/08/12 01:34:05;;;;;;;0.60;0.60;;;24.10;50.70;;;;;;5116275;28;20047;-34
2021/08/12 01:36:36;;;;;;;0.77;0.77;;;24.10;50.70;;;;;;5134539;28;20499;-33
2021/08/12 01:39:05;;;;;;;0.70;0.70;;;24.00;50.70;;;;;;5115111;28;20150;-33
2021/08/12 01:41:32;;;;;;;0.60;0.60;;;24.10;50.70;;;;;;5115388;28;20058;-33
2021/08/12 01:44:00;;;;;;;0.65;0.65;;;24.10;50.80;;;;;;5114363;28;20530;-33
2021/08/12 01:46:28;;;;;;;0.50;0.50;;;24.10;50.80;;;;;;5114320;28;20108;-33
2021/08/12 01:48:55;;;;;;;0.60;0.60;;;24.00;50.70;;;;;;5115995;28;20083;-33
2021/08/12 01:51:26;;;;;;;0.65;0.63;;;24.00;50.80;;;;;;5115982;28;20063;-33
2021/08/12 01:53:52;;;;;;;0.60;0.60;;;24.00;50.80;;;;;;5116343;28;20059;-33
2021/08/12 01:56:22;;;;;;;0.60;0.60;;;24.00;50.80;;;;;;5116108;28;20093;-34
2021/08/12 01:58:48;;;;;;;0.60;0.60;;;24.00;51.30;;;;;;5134705;28;20047;-33
2021/08/12 02:01:14;;;;;;;0.70;0.70;;;24.00;50.80;;;;;;5115886;28;20108;-33
2021/08/12 02:03:44;;;;;;;0.63;0.63;;;24.00;50.80;;;;;;5115738;28;20047;-33
2021/08/12 02:06:14;;;;;;;0.50;0.50;;;24.00;50.90;;;;;;5115948;28;20398;-33
2021/08/12 02:08:39;;;;;;;0.50;0.50;;;24.00;50.80;;;;;;5115440;28;20054;-33
2021/08/12 02:11:05;;;;;;;0.63;0.63;;;24.00;50.90;;;;;;5114482;28;20051;-33
2021/08/12 02:13:32;;;;;;;0.70;0.70;;;24.00;50.90;;;;;;5115759;28;20410;-33
2021/08/12 02:15:58;;;;;;;0.60;0.60;;;24.00;50.90;;;;;;5115413;28;20062;-33
2021/08/12 02:18:25;;;;;;;0.63;0.63;;;24.00;50.90;;;;;;5115149;28;20059;-33
2021/08/12 02:21:01;;;;;;;0.60;0.60;;;24.00;50.90;;;;;;5114234;28;20063;-33
2021/08/12 02:23:34;;;;;;;0.73;0.73;;;24.00;50.90;;;;;;5134062;28;20406;-33
2021/08/12 02:26:02;;;;;;;0.63;0.63;;;24.00;50.90;;;;;;5115940;28;20127;-33
2021/08/12 02:28:31;;;;;;;0.63;0.63;;;24.00;50.90;;;;;;5115710;28;20050;-33
2021/08/12 02:30:58;;;;;;;0.60;0.60;;;24.00;51.00;;;;;;5114920;28;20055;-33
2021/08/12 02:33:32;;;;;;;0.50;0.50;;;23.90;50.90;;;;;;5133667;28;20043;-33
2021/08/12 02:35:58;;;;;;;0.60;0.60;;;23.90;50.90;;;;;;5134090;28;20401;-33
2021/08/12 02:38:25;;;;;;;0.60;0.60;;;23.90;50.90;;;;;;5114886;28;20054;-33
2021/08/12 02:40:53;;;;;;;0.50;0.50;;;23.90;51.00;;;;;;5114558;28;20099;-33
2021/08/12 02:43:20;;;;;;;0.57;0.57;;;23.90;51.00;;;;;;5114913;28;20078;-33
2021/08/12 02:45:48;;;;;;;0.77;0.77;;;23.90;51.00;;;;;;5115266;28;20047;-33
2021/08/12 02:48:14;;;;;;;0.40;0.40;;;23.90;51.00;;;;;;5114899;28;20138;-33
2021/08/12 02:50:43;;;;;;;0.50;0.50;;;23.90;51.00;;;;;;5133353;28;20081;-33
2021/08/12 02:53:10;;;;;;;0.57;0.57;;;23.90;51.00;;;;;;5114894;28;20090;-33
2021/08/12 02:55:37;;;;;;;0.60;0.60;;;23.90;51.00;;;;;;5114829;28;20141;-33
2021/08/12 02:58:04;;;;;;;0.70;0.70;;;23.90;51.10;;;;;;5115036;28;20456;-33
2021/08/12 03:00:31;;;;;;;0.50;0.50;;;23.90;51.00;;;;;;5133271;28;20043;-33
2021/08/12 03:02:57;;;;;;;0.60;0.60;;;23.90;51.10;;;;;;5114701;28;20054;-33
2021/08/12 03:05:23;;;;;;;0.70;0.70;;;23.90;51.10;;;;;;5114790;28;20054;-33
2021/08/12 03:07:50;;;;;;;0.65;0.65;;;23.80;51.00;;;;;;5115419;28;20051;-33
2021/08/12 03:10:19;;;;;;;0.63;0.63;;;23.80;51.00;;;;;;5114929;28;20059;-33
2021/08/12 03:12:46;;;;;;;0.50;0.50;;;23.80;51.00;;;;;;5115123;28;20058;-33
2021/08/12 03:15:13;;;;;;;0.60;0.60;;;23.80;51.10;;;;;;5114198;28;20055;-33
2021/08/12 03:17:39;;;;;;;0.60;0.60;;;23.80;51.10;;;;;;5114700;28;20127;-33
2021/08/12 03:20:07;;;;;;;0.73;0.73;;;23.80;51.10;;;;;;5114527;28;20051;-34
2021/08/12 03:22:33;;;;;;;0.90;0.90;;;23.80;51.10;;;;;;5114464;28;20055;-34
2021/08/12 03:25:00;;;;;;;0.60;0.60;;;23.80;51.10;;;;;;5132956;28;20470;-33
2021/08/12 03:27:27;;;;;;;0.60;0.60;;;23.80;51.10;;;;;;5114368;28;20134;-34
2021/08/12 03:29:54;;;;;;;0.60;0.60;;;23.80;51.10;;;;;;5114290;28;20043;-34
2021/08/12 03:32:20;;;;;;;0.50;0.50;;;23.80;51.10;;;;;;5132831;28;20074;-34
2021/08/12 03:34:48;;;;;;;0.60;0.60;;;23.80;51.20;;;;;;5131823;28;20055;-33
2021/08/12 03:37:15;;;;;;;0.55;0.52;;;23.80;51.20;;;;;;5113145;28;20056;-33
2021/08/12 03:39:41;;;;;;;0.60;0.60;;;23.80;51.20;;;;;;5132878;28;20055;-34
2021/08/12 03:42:07;;;;;;;0.60;0.60;;;23.80;51.20;;;;;;5132653;28;20111;-34
2021/08/12 03:44:33;;;;;;;0.60;0.60;;;23.80;51.20;;;;;;5132509;28;20047;-34
2021/08/12 03:46:59;;;;;;;0.60;0.60;;;23.80;51.20;;;;;;5112419;28;20184;-33
2021/08/12 03:49:25;;;;;;;0.60;0.60;;;23.80;51.20;;;;;;5113888;28;20147;-34
2021/08/12 03:51:51;;;;;;;0.50;0.50;;;23.80;51.20;;;;;;5114551;28;20139;-34
2021/08/12 03:54:17;;;;;;;0.70;0.70;;;23.80;51.20;;;;;;5118285;28;20084;-34
2021/08/12 03:56:43;;;;;;;0.68;0.68;;;23.80;51.20;;;;;;5118128;28;20058;-34
2021/08/12 03:59:08;;;;;;;0.57;0.57;;;23.80;51.20;;;;;;5117399;28;20380;-34
2021/08/12 04:01:34;;;;;;;0.50;0.50;;;23.80;51.20;;;;;;5117589;28;20050;-33
2021/08/12 04:04:00;;;;;;;0.60;0.60;;;23.80;51.20;;;;;;5115307;28;20395;-34
2021/08/12 04:06:26;;;;;;;0.57;0.57;;;23.80;51.10;;;;;;5117023;28;20109;-33
2021/08/12 04:08:52;;;;;;;0.60;0.60;;;23.80;51.10;;;;;;5116861;28;20052;-34
2021/08/12 04:11:18;;;;;;;0.73;0.73;;;23.80;51.10;;;;;;5117506;28;20137;-33
2021/08/12 04:13:44;;;;;;;0.63;0.63;;;23.80;51.00;;;;;;5117330;28;20078;-33
2021/08/12 04:16:10;;;;;;;0.70;0.70;;;23.90;51.00;;;;;;5117733;28;20055;-33
2021/08/12 04:18:36;;;;;;;0.60;0.60;;;23.90;51.00;;;;;;5117114;28;20113;-34
2021/08/12 04:21:02;;;;;;;0.50;0.50;;;23.90;50.90;;;;;;5117762;28;20047;-33
2021/08/12 04:23:28;;;;;;;0.60;0.60;;;24.00;50.90;;;;;;5117067;28;20383;-34
2021/08/12 04:25:54;;;;;;;0.50;0.50;;;24.00;50.80;;;;;;5117008;28;20099;-33
2021/08/12 04:28:21;;;;;;;0.60;0.60;;;24.00;50.70;;;;;;5116900;28;20133;-33
2021/08/12 04:30:48;;;;;;;0.50;0.50;;;24.00;50.70;;;;;;5136060;28;20130;-34
2021/08/12 04:33:17;;;;;;;0.50;0.50;;;24.00;50.70;;;;;;5116888;28;20142;-34
2021/08/12 04:35:43;;;;;;;0.60;0.60;;;24.00;50.60;;;;;;5116942;28;20083;-33
2021/08/12 04:38:09;;;;;;;0.60;0.60;;;24.10;50.60;;;;;;5115834;28;20101;-34
2021/08/12 04:40:35;;;;;;;0.60;0.60;;;24.10;50.60;;;;;;5135376;28;20051;-34
2021/08/12 04:43:00;;;;;;;0.50;0.50;;;24.10;50.50;;;;;;5135159;28;20043;-34
2021/08/12 04:45:27;;;;;;;0.63;0.63;;;24.10;50.50;;;;;;5117056;28;20138;-34
2021/08/12 04:48:03;;;;;;;0.60;0.60;;;24.10;50.40;;;;;;5114957;28;20078;-34
2021/08/12 04:50:34;;;;;;;0.50;0.50;;;24.20;50.40;;;;;;5116125;28;20487;-33
2021/08/12 04:53:00;;;;;;;0.70;0.70;;;24.20;50.30;;;;;;5135433;28;20199;-34
2021/08/12 04:55:26;;;;;;;0.60;0.60;;;24.30;50.20;;;;;;5116654;28;20047;-34
2021/08/12 04:57:51;;;;;;;0.60;0.60;;;24.30;50.00;;;;;;5135049;28;20047;-34
2021/08/12 05:00:17;;;;;;;0.63;0.63;;;24.40;50.00;;;;;;5116487;28;20062;-33
2021/08/12 05:02:43;;;;;;;0.60;0.60;;;24.40;49.80;;;;;;5115904;28;20066;-34
2021/08/12 05:05:09;;;;;;;0.60;0.60;;;24.50;49.70;;;;;;5134885;28;20073;-33
2021/08/12 05:07:37;;;;;;;0.98;0.70;;;24.60;49.60;;;;;;5114253;28;20536;-34
2021/08/12 05:10:03;;;;;;;0.52;0.52;;;24.60;49.50;;;;;;5116469;28;20422;-34
2021/08/12 05:12:29;;;;;;;0.60;0.60;;;24.60;49.40;;;;;;5116224;28;20055;-33
2021/08/12 05:14:58;;;;;;;0.50;0.50;;;24.60;49.40;;;;;;5114854;28;20499;-34
2021/08/12 05:17:26;;;;;;;0.50;0.50;;;24.70;49.40;;;;;;5134749;28;20074;-33
2021/08/12 05:19:52;;;;;;;0.45;0.40;;;24.70;49.30;;;;;;5134305;28;20077;-33
2021/08/12 05:22:24;;;;;;;0.50;0.50;;;24.70;49.20;;;;;;5116546;28;20047;-34
2021/08/12 05:24:51;;;;;;;0.60;0.60;;;24.70;49.20;;;;;;5116542;28;20043;-34
2021/08/12 05:27:18;;;;;;;0.45;0.45;;;24.70;49.10;;;;;;5115095;28;20537;-34
2021/08/12 05:29:44;;;;;;;0.50;0.50;;;24.70;49.20;;;;;;5114340;28;20376;-34
2021/08/12 05:32:10;;;;;;;0.50;0.50;;;24.70;49.20;;;;;;5116177;28;20054;-34
2021/08/12 05:34:36;;;;;;;0.60;0.60;;;24.70;49.20;;;;;;5114805;28;20055;-34
2021/08/12 05:37:02;;;;;;;0.50;0.50;;;24.70;49.10;;;;;;5134258;28;20051;-34
2021/08/12 05:39:29;;;;;;;0.70;0.70;;;24.70;49.10;;;;;;5115519;28;20515;-33
2021/08/12 05:41:54;;;;;;;0.70;0.70;;;24.70;49.10;;;;;;5116222;28;20047;-34
2021/08/12 05:44:21;;;;;;;0.60;0.60;;;24.70;49.20;;;;;;5115992;28;20514;-34
2021/08/12 05:46:46;;;;;;;0.60;0.60;;;24.70;49.20;;;;;;5115789;28;20077;-34
2021/08/12 05:49:12;;;;;;;0.63;0.60;;;24.70;49.20;;;;;;5115036;28;20055;-33
2021/08/12 05:51:38;;;;;;;0.52;0.52;;;24.70;49.20;;;;;;5134075;28;20412;-34
2021/08/12 05:54:06;;;;;;;0.70;0.70;;;24.70;49.10;;;;;;5115652;28;20043;-33
2021/08/12 05:56:32;;;;;;;0.63;0.63;;;24.70;49.00;;;;;;5134078;28;20398;-33
2021/08/12 05:58:57;;;;;;;0.70;0.70;;;24.80;49.10;;;;;;5114874;28;20053;-33
2021/08/12 06:01:23;;;;;;;0.70;0.70;;;24.80;49.10;;;;;;5114237;28;20507;-33
2021/08/12 06:03:49;;;;;;;0.60;0.60;;;24.80;49.00;;;;;;5115429;28;20479;-33
2021/08/12 06:06:15;;;;;;;0.65;0.65;;;24.90;48.80;;;;;;5115988;28;20154;-33
2021/08/12 06:08:40;;;;;;;0.57;0.57;;;25.00;48.60;;;;;;5114727;28;20379;-33
2021/08/12 06:11:07;;;;;;;0.60;0.60;;;25.10;48.40;;;;;;5115357;28;20047;-34
2021/08/12 06:13:32;;;;;;;0.50;0.50;;;25.20;48.30;;;;;;5114618;27;20116;-33
2021/08/12 06:16:01;;;;;;;0.50;0.50;;;25.30;48.10;;;;;;5133093;28;20051;-34
2021/08/12 06:18:28;;;;;;;0.60;0.60;;;25.40;48.50;;;;;;5115778;28;20055;-34
2021/08/12 06:20:53;;;;;;;0.57;0.57;;;25.50;47.80;;;;;;5115022;28;20047;-34
2021/08/12 06:23:20;;;;;;;0.60;0.60;;;25.60;47.60;;;;;;5114955;28;20506;-34
2021/08/12 06:25:45;;;;;;;0.70;0.70;;;25.70;47.40;;;;;;5115396;28;20498;-34
2021/08/12 06:28:12;;;;;;;0.63;0.40;;;25.80;47.20;;;;;;5115476;28;20054;-34
2021/08/12 06:30:37;;;;;;;0.60;0.60;;;25.90;47.00;;;;;;5133943;28;20051;-33
2021/08/12 06:33:04;;;;;;;0.52;0.52;;;26.00;46.90;;;;;;5114997;28;20054;-33
2021/08/12 06:35:32;;;;;;;0.63;0.63;;;26.10;46.80;;;;;;5114750;28;20055;-33
2021/08/12 06:37:58;;;;;;;1.33;0.63;;;26.10;46.50;;;;;;5115049;28;20051;-33
2021/08/12 06:40:24;;;;;;;0.60;0.60;;;26.20;46.50;;;;;;5133833;28;20051;-33
2021/08/12 06:42:54;;;;;;;0.50;0.50;;;26.30;46.40;;;;;;5133638;28;20087;-33
2021/08/12 06:45:21;;;;;;;0.73;0.73;;;26.30;46.20;;;;;;5114717;28;20055;-33
2021/08/12 06:47:48;;;;;;;0.65;0.65;;;26.30;46.30;;;;;;5114899;28;20105;-33
2021/08/12 06:50:15;;;;;;;0.60;0.60;;;26.10;46.50;;;;;;5115041;28;20083;-34
2021/08/12 06:52:42;;;;;;;0.63;0.63;;;26.10;46.60;;;;;;5114691;28;20501;-33
2021/08/12 06:55:08;;;;;;;0.60;0.60;;;26.20;46.60;;;;;;5114861;28;20047;-33
2021/08/12 06:57:33;;;;;;;0.60;0.60;;;26.30;46.40;;;;;;5115297;28;20479;-33
2021/08/12 07:00:00;;;;;;;0.70;0.70;;;26.40;46.20;;;;;;5133157;28;20069;-33
2021/08/12 07:02:26;;;;;;;3.38;0.80;;;26.50;46.10;;;;;;5114631;28;20047;-33
2021/08/12 07:04:52;;;;;;;0.57;0.57;;;26.50;45.90;;;;;;5114465;28;20047;-33
2021/08/12 07:07:19;;;;;;;1.08;0.95;;;26.50;46.00;;;;;;5114010;28;20066;-33
2021/08/12 07:09:47;;;;;;;0.65;0.60;;;26.40;46.00;;;;;;5112970;28;20132;-33
2021/08/12 07:12:13;;;;;;;0.68;0.68;;;26.40;46.10;;;;;;5112505;28;20047;-33
2021/08/12 07:14:39;;;;;;;0.75;0.60;;;26.30;46.20;;;;;;5113811;28;20103;-33
2021/08/12 07:17:05;;;;;;;0.73;0.73;;;26.30;46.30;;;;;;5113065;28;20411;-33
2021/08/12 07:19:32;;;;;;;0.65;0.65;;;26.30;46.30;;;;;;5112587;28;20051;-33
2021/08/12 07:21:57;;;;;;;0.65;0.65;;;26.40;46.20;;;;;;5114459;28;20493;-33
2021/08/12 07:24:25;;;;;;;0.50;0.50;;;26.50;46.00;;;;;;5114938;28;20043;-33
2021/08/12 07:26:51;;;;;;;0.60;0.60;;;26.70;45.90;;;;;;5117241;28;20411;-33
2021/08/12 07:29:18;;;;;;;1.02;0.70;;;26.70;45.80;;;;;;5116164;28;20144;-33
2021/08/12 07:31:44;;;;;;;0.63;0.63;;;26.60;45.70;;;;;;5117805;28;20055;-33
2021/08/12 07:34:10;;;;;;;0.70;0.70;;;26.60;45.90;;;;;;5117800;28;20049;-33
2021/08/12 07:36:38;;;;;;;0.65;0.65;;;26.50;45.90;;;;;;5117872;28;20047;-33
2021/08/12 07:39:06;;;;;;;0.60;0.60;;;26.60;45.90;;;;;;5116106;28;20523;-33
2021/08/12 07:41:35;;;;;;;0.77;0.77;;;26.60;45.80;;;;;;5117602;28;20093;-33
2021/08/12 07:44:02;;;;;;;0.75;0.70;;;26.60;45.80;;;;;;5136112;28;20119;-33
2021/08/12 07:46:28;;;;;;;0.75;0.70;;;26.70;45.80;;;;;;5135213;28;20046;-33
2021/08/12 07:48:53;;;;;;;0.80;0.80;;;26.70;45.70;;;;;;5117785;28;20104;-33
2021/08/12 07:51:22;;;;;;;15.60;4.18;;;26.70;45.70;;;;;;5136067;28;20055;-34
2021/08/12 07:53:49;;;;;;;4.55;1.20;;;26.60;51.90;;;;;;5135957;28;20510;-33
2021/08/12 07:56:15;;;;;;;3.35;1.00;;;26.60;47.40;;;;;;5135804;28;20099;-33
2021/08/12 07:58:41;;;;;;;1.63;0.80;;;26.70;46.70;;;;;;5135916;28;20090;-33
2021/08/12 08:01:08;;;;;;;2.97;1.13;;;26.70;46.40;;;;;;5136167;28;20051;-33
2021/08/12 08:03:33;;;;;;;2.83;0.77;;;26.70;46.40;;;;;;5136000;28;20055;-33
2021/08/12 08:06:00;;;;;;;1.50;0.82;;;26.70;46.40;;;;;;5135659;28;20406;-33
2021/08/12 08:08:27;;;;;;;2.88;1.00;;;26.60;46.40;;;;;;5116492;28;20062;-33
2021/08/12 08:10:52;;;;;;;3.42;1.40;;;26.60;46.60;;;;;;5135733;28;20047;-33
2021/08/12 08:13:18;;;;;;;3.45;1.00;;;26.40;46.60;;;;;;5135870;28;20054;-33
2021/08/12 08:15:44;;;;;;;2.58;0.93;;;26.30;46.70;;;;;;5135700;28;20051;-33
2021/08/12 08:18:09;;;;;;;3.92;1.10;;;26.30;46.80;;;;;;5115431;28;20054;-33
2021/08/12 08:20:35;;;;;;;4.22;0.98;;;26.30;46.80;;;;;;5117457;28;20142;-34
2021/08/12 08:23:09;;;;;;;3.75;0.90;;;26.30;46.90;;;;;;5135427;28;20081;-33
2021/08/12 08:25:35;;;;;;;1.73;1.25;;;26.40;46.70;;;;;;5135607;28;20054;-33
2021/08/12 08:28:02;;;;;;;1.50;1.20;;;26.50;46.50;;;;;;5135394;28;20058;-33
2021/08/12 08:30:29;;;;;;;3.13;1.00;;;26.60;46.40;;;;;;5135532;28;20119;-33
2021/08/12 08:32:55;;;;;;;1.60;0.93;;;26.60;46.40;;;;;;5135790;28;20451;-33
2021/08/12 08:35:23;;;;;;;2.78;0.88;;;26.50;46.50;;;;;;5135920;28;20111;-33
2021/08/12 08:37:49;;;;;;;1.38;0.98;;;26.50;46.50;;;;;;5134249;27;20146;-33
2021/08/12 08:40:14;;;;;;;3.25;1.02;;;26.60;46.40;;;;;;5135647;28;20525;-33
2021/08/12 08:42:42;;;;;;;6.45;1.10;;;26.60;46.20;;;;;;5135423;28;20395;-33
2021/08/12 08:45:08;;;;;;;3.05;1.20;;;26.60;46.20;;;;;;5135410;28;20043;-33
2021/08/12 08:47:35;;;;;;;0.93;0.85;;;26.60;46.20;;;;;;5135071;28;20445;-34
2021/08/12 08:50:02;;;;;;;3.17;1.05;;;26.60;46.20;;;;;;5135239;28;20079;-33
2021/08/12 08:52:29;;;;;;;0.90;0.70;;;26.60;46.30;;;;;;5135406;28;20066;-33
2021/08/12 08:54:56;;;;;;;1.10;0.93;;;26.50;46.20;;;;;;5135361;28;20095;-33
2021/08/12 08:57:21;;;;;;;2.28;0.90;;;26.60;46.20;;;;;;5135012;28;20187;-34
2021/08/12 08:59:47;;;;;;;2.10;0.93;;;26.60;46.20;;;;;;5115050;28;20056;-33
2021/08/12 09:02:13;;;;;;;1.17;0.93;;;26.60;46.20;;;;;;5134817;28;20055;-33
2021/08/12 09:04:39;;;;;;;2.60;0.95;;;26.60;46.30;;;;;;5134982;28;20055;-33
2021/08/12 09:07:08;;;;;;;3.13;0.93;;;26.50;46.30;;;;;;5134890;28;20054;-33
2021/08/12 09:09:38;;;;;;;1.52;1.17;;;26.50;46.30;;;;;;5116444;28;20090;-33
2021/08/12 09:12:05;;;;;;;4.57;1.23;;;26.50;46.30;;;;;;5134546;28;20051;-33
2021/08/12 09:14:32;;;;;;;1.45;0.88;;;26.50;46.40;;;;;;5134932;28;20042;-33
2021/08/12 09:16:58;;;;;;;1.20;0.80;;;26.50;46.40;;;;;;5134710;28;20055;-33
2021/08/12 09:19:25;;;;;;;1.95;0.95;;;26.40;46.40;;;;;;5134512;28;20207;-34
2021/08/12 09:21:52;;;;;;;1.80;1.00;;;26.40;46.40;;;;;;5134535;28;20051;-33
2021/08/12 09:24:18;;;;;;;1.23;0.70;;;26.50;46.40;;;;;;5134598;28;20478;-33
2021/08/12 09:26:44;;;;;;;1.48;0.98;;;26.40;46.40;;;;;;5116304;28;21294;-33
2021/08/12 09:29:10;;;;;;;1.40;0.70;;;26.40;46.30;;;;;;5134576;28;20043;-33
2021/08/12 09:31:58;;;;;;;2.35;1.00;;;26.40;46.40;;;;;;5134773;28;20143;-33
2021/08/12 09:34:24;;;;;;;1.95;1.00;;;26.40;46.40;;;;;;5134660;28;20050;-33
2021/08/12 09:37:03;;;;;;;1.48;0.93;;;26.50;46.40;;;;;;5134197;28;20064;-33
2021/08/12 09:39:29;;;;;;;1.60;1.00;;;26.50;46.40;;;;;;5134055;28;20059;-33
2021/08/12 09:41:56;;;;;;;2.25;1.00;;;26.50;46.30;;;;;;5114514;28;20051;-34
2021/08/12 09:44:39;;;;;;;2.28;1.00;;;26.50;46.30;;;;;;5134239;28;20070;-34
2021/08/12 09:47:14;;;;;;;1.05;0.82;;;26.50;46.30;;;;;;5133997;28;20141;-34
2021/08/12 09:50:22;;;;;;;1.40;0.77;;;26.60;46.30;;;;;;5134131;27;20112;-34
2021/08/12 09:52:48;;;;;;;2.03;0.80;;;26.60;46.20;;;;;;5093930;28;20412;-34
2021/08/12 09:55:18;;;;;;;1.63;0.85;;;26.60;46.10;;;;;;5134457;28;20130;-34
2021/08/12 09:58:04;;;;;;;1.65;1.02;;;26.60;46.10;;;;;;5134035;28;20096;-34
2021/08/12 10:00:33;;;;;;;0.80;0.80;;;26.60;46.10;;;;;;5134257;28;20486;-34
2021/08/12 10:03:00;;;;;;;2.10;1.00;;;26.60;46.10;;;;;;5116050;28;20078;-34
2021/08/12 10:05:26;;;;;;;0.80;0.80;;;26.60;46.10;;;;;;5133769;28;20498;-34
2021/08/12 10:07:56;;;;;;;0.85;0.85;;;26.50;46.10;;;;;;5114824;28;20052;-34
2021/08/12 10:10:27;;;;;;;1.67;0.80;;;26.50;46.10;;;;;;5134297;28;20059;-34
2021/08/12 10:12:57;;;;;;;;;;;26.50;46.20;;;;;;5134346;28;20055;-34
2021/08/12 10:15:25;;;;;;;2.83;1.27;;;26.50;46.10;;;;;;5133693;28;19916;-34
2021/08/12 10:17:56;;;;;;;1.10;1.00;;;26.50;46.20;;;;;;5133678;28;20055;-34
2021/08/12 10:20:23;;;;;;;2.65;0.90;;;26.50;46.20;;;;;;5133945;28;20133;-33
2021/08/12 10:22:50;;;;;;;2.15;1.20;;;26.50;46.20;;;;;;5133586;28;20054;-34
2021/08/12 10:25:18;;;;;;;1.40;0.98;;;26.50;46.10;;;;;;5114724;28;20055;-34
2021/08/12 10:27:45;;;;;;;1.50;1.20;;;26.50;46.10;;;;;;5133405;28;20055;-33
2021/08/12 10:30:12;;;;;;;1.30;1.17;;;26.50;46.10;;;;;;5133222;28;20051;-33
2021/08/12 10:32:44;;;;;;;1.77;1.17;;;26.50;46.00;;;;;;5133331;28;20047;-34
2021/08/12 10:35:10;;;;;;;1.95;0.70;;;26.50;46.00;;;;;;5133774;28;20471;-34
2021/08/12 10:37:36;;;;;;;1.35;0.90;;;26.60;46.10;;;;;;5133112;28;20047;-34
2021/08/12 10:40:03;;;;;;;1.48;0.88;;;26.60;46.00;;;;;;5133086;28;20059;-34
2021/08/12 10:42:30;;;;;;;1.52;0.73;;;26.60;46.50;;;;;;5133257;28;20047;-34
2021/08/12 10:44:56;;;;;;;4.10;1.13;;;26.60;45.90;;;;;;5132944;28;20039;-34
2021/08/12 10:47:38;;;;;;;1.00;0.90;;;26.60;45.90;;;;;;5133059;28;20051;-34
2021/08/12 10:50:24;;;;;;;1.42;0.98;;;26.70;45.90;;;;;;5114481;28;20047;-33
2021/08/12 10:53:01;;;;;;;1.27;0.85;;;26.60;45.80;;;;;;5115185;28;20380;-34
2021/08/12 10:55:28;;;;;;;0.93;0.82;;;26.70;45.80;;;;;;5133207;28;20435;-34
2021/08/12 11:00:55;;;;;;;1.27;0.82;;;26.80;45.60;;;;;;5134714;27;20047;-34
2021/08/12 11:03:33;;;;;;;1.20;1.10;;;26.80;45.60;;;;;;5118532;28;20058;-34
2021/08/12 11:06:06;;;;;;;1.20;0.95;;;26.90;45.50;;;;;;5101824;28;20059;-34
2021/08/12 11:11:23;;;;;;;1.10;1.00;;;27.00;45.20;;;;;;5137055;28;20062;-34
2021/08/12 11:13:50;;;;;;;0.90;0.90;;;27.00;45.10;;;;;;5118565;28;20087;-34
2021/08/12 11:16:16;;;;;;;0.90;0.90;;;27.00;45.20;;;;;;5136569;28;20104;-34
2021/08/12 11:18:59;;;;;;;1.08;1.00;;;27.00;45.20;;;;;;5136557;28;20471;-34
2021/08/12 11:21:30;;;;;;;0.98;0.95;;;27.00;45.20;;;;;;5118115;28;20478;-34
2021/08/12 11:23:59;;;;;;;1.00;0.90;;;27.00;45.10;;;;;;5136262;28;20043;-34
2021/08/12 11:26:25;;;;;;;1.50;1.15;;;27.00;45.10;;;;;;5136447;28;20137;-34
2021/08/12 11:28:55;;;;;;;1.13;0.88;;;27.00;45.10;;;;;;5136225;28;20501;-34
2021/08/12 11:31:21;;;;;;;1.50;0.82;;;27.00;45.10;;;;;;5117904;28;20051;-34
2021/08/12 11:33:48;;;;;;;1.10;0.80;;;27.00;45.10;;;;;;5136416;28;20069;-34
2021/08/12 11:36:18;;;;;;;0.75;0.75;;;27.00;45.10;;;;;;5136515;28;20085;-34
2021/08/12 11:38:54;;;;;;;1.38;1.10;;;27.00;45.20;;;;;;5136119;28;20051;-34
2021/08/12 11:41:20;;;;;;;2.28;1.00;;;27.00;45.20;;;;;;5136504;28;20083;-33
2021/08/12 11:43:48;;;;;;;0.90;0.90;;;27.00;45.10;;;;;;5136150;28;20517;-33
2021/08/12 11:46:14;;;;;;;1.60;1.08;;;27.10;45.10;;;;;;5136422;28;20380;-33
2021/08/12 11:48:40;;;;;;;0.95;0.90;;;27.10;45.00;;;;;;5135888;28;20432;-33
2021/08/12 11:51:06;;;;;;;0.95;0.90;;;27.10;45.10;;;;;;5136108;28;20502;-33
2021/08/12 11:53:49;;;;;;;1.00;1.00;;;27.10;45.10;;;;;;5136502;28;20086;-33
2021/08/12 11:56:24;;;;;;;1.10;1.05;;;27.10;45.10;;;;;;5136099;28;20511;-33
2021/08/12 11:58:55;;;;;;;1.40;0.98;;;27.00;45.10;;;;;;5135948;28;20067;-33
2021/08/12 12:01:30;;;;;;;1.30;1.13;;;27.00;45.10;;;;;;5117987;28;20395;-33
2021/08/12 12:03:59;;;;;;;1.20;1.10;;;27.00;45.20;;;;;;5117958;28;20073;-33
2021/08/12 12:06:36;;;;;;;1.30;1.20;;;27.00;45.20;;;;;;5135841;28;20062;-33
2021/08/12 12:09:27;;;;;;;1.20;1.08;;;27.00;45.30;;;;;;5135826;28;20383;-33
2021/08/12 12:12:04;;;;;;;1.60;1.25;;;27.00;45.30;;;;;;5134452;27;20475;-34
2021/08/12 12:14:35;;;;;;;2.13;1.13;;;26.90;45.30;;;;;;5135595;28;20042;-34
2021/08/12 12:17:11;;;;;;;;;;;26.90;45.30;;;;;;5136225;28;20074;-34
2021/08/12 12:20:04;;;;;;;1.50;0.98;;;26.90;45.30;;;;;;5116583;28;19939;-33
2021/08/12 12:22:31;;;;;;;1.55;1.25;;;26.90;45.30;;;;;;5117580;28;20127;-34
2021/08/12 12:24:59;;;;;;;1.20;1.10;;;26.90;45.40;;;;;;5135451;28;20047;-34
2021/08/12 12:27:27;;;;;;;1.25;1.15;;;26.80;45.40;;;;;;5135324;28;20083;-34
2021/08/12 12:30:04;;;;;;;1.27;1.17;;;26.80;45.40;;;;;;5135500;28;20049;-34
2021/08/12 12:32:30;;;;;;;1.23;1.00;;;26.90;45.50;;;;;;5135456;28;20054;-34
2021/08/12 12:34:59;;;;;;;2.65;1.30;;;26.80;45.40;;;;;;5135260;28;20047;-34
2021/08/12 12:37:26;;;;;;;1.48;1.20;;;26.80;45.40;;;;;;5135238;28;21559;-34
2021/08/12 12:39:52;;;;;;;1.40;1.20;;;26.90;45.50;;;;;;5116699;28;20410;-34
2021/08/12 12:42:18;;;;;;;1.50;1.15;;;26.90;45.50;;;;;;5135099;28;20047;-34
2021/08/12 12:45:10;;;;;;;2.28;1.17;;;26.80;45.40;;;;;;5134830;28;20047;-34
2021/08/12 12:47:37;;;;;;;2.30;1.20;;;26.80;45.50;;;;;;5131718;28;20055;-34
2021/08/12 12:50:07;;;;;;;2.28;1.17;;;26.80;45.60;;;;;;5116254;28;20051;-34
2021/08/12 12:52:32;;;;;;;1.88;1.30;;;26.80;45.60;;;;;;5134897;28;20086;-33
2021/08/12 12:54:58;;;;;;;1.58;1.10;;;26.80;45.50;;;;;;5134821;28;20466;-34
2021/08/12 12:57:34;;;;;;;1.20;1.10;;;26.90;45.40;;;;;;5135082;28;20486;-33
2021/08/12 13:00:00;;;;;;;1.42;1.13;;;27.00;45.30;;;;;;5134982;28;20054;-34